sensor_id;sensor_type;location;lat;lon;timestamp;temperature;humidity
31809;DHT22;18379;48.208;-1.518;2023-04-15T00:02:29;9.40;99.90
31809;DHT22;18379;48.208;-1.518;2023-04-15T00:07:30;9.50;99.90
31809;DHT22;18379;48.208;-1.518;2023-04-15T00:12:31;9.50;99.90
31809;DHT22;18379;48.208;-1.518;2023-04-15T00:17:32;9.40;99.90
31809;DHT22;18379;48.208;-1.518;2023-04-15T00:22:33;9.40;99.90
31809;DHT22;18379;48.208;-1.518;2023-04-15T00:27:34;9.40;99.90
31809;DHT22;18379;48.208;-1.518;2023-04-15T00:32:34;9.30;99.90
31809;DHT22;18379;48.208;-1.518;2023-04-15T00:37:35;9.40;99.90
31809;DHT22;18379;48.208;-1.518;2023-04-15T00:42:37;9.30;99.90
31809;DHT22;18379;48.208;-1.518;2023-04-15T00:47:40;9.30;99.90
31809;DHT22;18379;48.208;-1.518;2023-04-15T00:52:42;9.00;99.90
31809;DHT22;18379;48.208;-1.518;2023-04-15T00:57:43;8.90;99.90
31809;DHT22;18379;48.208;-1.518;2023-04-15T01:02:44;8.70;99.90
31809;DHT22;18379;48.208;-1.518;2023-04-15T01:07:49;8.70;99.90
31809;DHT22;18379;48.208;-1.518;2023-04-15T01:12:50;8.70;99.90
31809;DHT22;18379;48.208;-1.518;2023-04-15T01:17:50;8.60;99.90
31809;DHT22;18379;48.208;-1.518;2023-04-15T01:22:51;8.50;99.90
31809;DHT22;18379;48.208;-1.518;2023-04-15T01:27:54;8.50;99.90
31809;DHT22;18379;48.208;-1.518;2023-04-15T01:32:55;8.50;99.90
31809;DHT22;18379;48.208;-1.518;2023-04-15T01:38:04;8.40;99.90
31809;DHT22;18379;48.208;-1.518;2023-04-15T01:43:05;8.40;99.90
31809;DHT22;18379;48.208;-1.518;2023-04-15T01:48:06;8.30;99.90
31809;DHT22;18379;48.208;-1.518;2023-04-15T01:53:07;8.20;99.90
31809;DHT22;18379;48.208;-1.518;2023-04-15T01:58:08;8.20;99.90
31809;DHT22;18379;48.208;-1.518;2023-04-15T02:03:09;8.10;99.90
31809;DHT22;18379;48.208;-1.518;2023-04-15T02:08:10;8.10;99.90
31809;DHT22;18379;48.208;-1.518;2023-04-15T02:13:12;8.10;99.90
31809;DHT22;18379;48.208;-1.518;2023-04-15T02:18:14;8.00;99.90
31809;DHT22;18379;48.208;-1.518;2023-04-15T02:23:15;8.00;99.90
31809;DHT22;18379;48.208;-1.518;2023-04-15T02:28:16;8.00;99.90
31809;DHT22;18379;48.208;-1.518;2023-04-15T02:33:17;8.10;99.90
31809;DHT22;18379;48.208;-1.518;2023-04-15T02:38:18;8.10;99.90
31809;DHT22;18379;48.208;-1.518;2023-04-15T02:43:19;8.00;99.90
31809;DHT22;18379;48.208;-1.518;2023-04-15T02:48:20;8.00;99.90
31809;DHT22;18379;48.208;-1.518;2023-04-15T02:53:21;7.90;99.90
31809;DHT22;18379;48.208;-1.518;2023-04-15T02:58:22;7.90;99.90
31809;DHT22;18379;48.208;-1.518;2023-04-15T03:03:22;7.90;99.90
31809;DHT22;18379;48.208;-1.518;2023-04-15T03:08:23;7.80;99.90
31809;DHT22;18379;48.208;-1.518;2023-04-15T03:13:24;7.80;99.90
31809;DHT22;18379;48.208;-1.518;2023-04-15T03:18:25;7.80;99.90
31809;DHT22;18379;48.208;-1.518;2023-04-15T03:23:26;7.80;99.90
31809;DHT22;18379;48.208;-1.518;2023-04-15T03:28:26;7.70;99.90
31809;DHT22;18379;48.208;-1.518;2023-04-15T03:33:29;7.70;99.90
31809;DHT22;18379;48.208;-1.518;2023-04-15T03:38:29;7.60;99.90
31809;DHT22;18379;48.208;-1.518;2023-04-15T03:43:30;7.50;99.90
31809;DHT22;18379;48.208;-1.518;2023-04-15T03:48:31;7.40;99.90
31809;DHT22;18379;48.208;-1.518;2023-04-15T03:53:32;7.30;99.90
31809;DHT22;18379;48.208;-1.518;2023-04-15T03:58:33;7.30;99.90
31809;DHT22;18379;48.208;-1.518;2023-04-15T04:03:33;7.20;99.90
31809;DHT22;18379;48.208;-1.518;2023-04-15T04:08:34;7.20;99.90
31809;DHT22;18379;48.208;-1.518;2023-04-15T04:13:35;7.10;99.90
31809;DHT22;18379;48.208;-1.518;2023-04-15T04:18:36;7.10;99.90
31809;DHT22;18379;48.208;-1.518;2023-04-15T04:23:37;7.10;99.90
31809;DHT22;18379;48.208;-1.518;2023-04-15T04:28:37;7.00;99.90
31809;DHT22;18379;48.208;-1.518;2023-04-15T04:33:41;7.00;99.90
31809;DHT22;18379;48.208;-1.518;2023-04-15T04:38:42;7.00;99.90
31809;DHT22;18379;48.208;-1.518;2023-04-15T04:43:43;6.90;99.90
31809;DHT22;18379;48.208;-1.518;2023-04-15T04:48:43;6.90;99.90
31809;DHT22;18379;48.208;-1.518;2023-04-15T04:53:44;7.00;99.90
31809;DHT22;18379;48.208;-1.518;2023-04-15T04:58:45;7.00;99.90
31809;DHT22;18379;48.208;-1.518;2023-04-15T05:03:46;7.10;99.90
31809;DHT22;18379;48.208;-1.518;2023-04-15T05:08:47;7.10;99.90
31809;DHT22;18379;48.208;-1.518;2023-04-15T05:13:48;7.10;99.90
31809;DHT22;18379;48.208;-1.518;2023-04-15T05:18:49;7.00;99.90
31809;DHT22;18379;48.208;-1.518;2023-04-15T05:23:50;6.90;99.90
31809;DHT22;18379;48.208;-1.518;2023-04-15T05:28:50;6.80;99.90
31809;DHT22;18379;48.208;-1.518;2023-04-15T05:33:51;6.80;99.90
31809;DHT22;18379;48.208;-1.518;2023-04-15T05:38:52;6.80;99.90
31809;DHT22;18379;48.208;-1.518;2023-04-15T05:43:53;6.90;99.90
31809;DHT22;18379;48.208;-1.518;2023-04-15T05:48:54;6.90;99.90
31809;DHT22;18379;48.208;-1.518;2023-04-15T05:53:55;6.90;99.90
31809;DHT22;18379;48.208;-1.518;2023-04-15T05:58:56;6.90;99.90
31809;DHT22;18379;48.208;-1.518;2023-04-15T06:03:57;6.80;99.90
31809;DHT22;18379;48.208;-1.518;2023-04-15T06:08:57;6.90;99.90
31809;DHT22;18379;48.208;-1.518;2023-04-15T06:13:58;7.00;99.90
31809;DHT22;18379;48.208;-1.518;2023-04-15T06:18:59;7.10;99.90
31809;DHT22;18379;48.208;-1.518;2023-04-15T06:24:00;7.10;99.90
31809;DHT22;18379;48.208;-1.518;2023-04-15T06:29:01;7.20;99.90
31809;DHT22;18379;48.208;-1.518;2023-04-15T06:34:02;7.20;99.90
31809;DHT22;18379;48.208;-1.518;2023-04-15T06:39:02;7.30;99.90
31809;DHT22;18379;48.208;-1.518;2023-04-15T06:44:03;7.40;99.90
31809;DHT22;18379;48.208;-1.518;2023-04-15T06:49:04;7.60;99.90
31809;DHT22;18379;48.208;-1.518;2023-04-15T06:54:05;7.80;99.90
31809;DHT22;18379;48.208;-1.518;2023-04-15T06:59:06;8.20;99.90
31809;DHT22;18379;48.208;-1.518;2023-04-15T07:04:08;8.50;99.90
31809;DHT22;18379;48.208;-1.518;2023-04-15T07:09:08;8.70;99.90
31809;DHT22;18379;48.208;-1.518;2023-04-15T07:14:10;8.90;99.90
31809;DHT22;18379;48.208;-1.518;2023-04-15T07:19:11;9.10;99.90
31809;DHT22;18379;48.208;-1.518;2023-04-15T07:24:11;9.20;99.90
31809;DHT22;18379;48.208;-1.518;2023-04-15T07:29:16;9.30;99.90
31809;DHT22;18379;48.208;-1.518;2023-04-15T07:34:18;9.60;99.90
31809;DHT22;18379;48.208;-1.518;2023-04-15T07:39:19;9.70;99.90
31809;DHT22;18379;48.208;-1.518;2023-04-15T07:44:20;9.80;99.90
31809;DHT22;18379;48.208;-1.518;2023-04-15T07:49:21;9.90;99.90
31809;DHT22;18379;48.208;-1.518;2023-04-15T07:54:23;10.00;99.90
31809;DHT22;18379;48.208;-1.518;2023-04-15T07:59:23;10.20;99.90
31809;DHT22;18379;48.208;-1.518;2023-04-15T08:04:24;10.40;99.90
31809;DHT22;18379;48.208;-1.518;2023-04-15T08:09:25;10.40;99.90
31809;DHT22;18379;48.208;-1.518;2023-04-15T08:14:26;10.40;99.90
31809;DHT22;18379;48.208;-1.518;2023-04-15T08:19:27;10.60;99.90
31809;DHT22;18379;48.208;-1.518;2023-04-15T08:24:30;10.70;99.90
31809;DHT22;18379;48.208;-1.518;2023-04-15T08:29:31;10.90;99.90
31809;DHT22;18379;48.208;-1.518;2023-04-15T08:34:32;10.80;99.90
31809;DHT22;18379;48.208;-1.518;2023-04-15T08:39:33;10.90;99.90
31809;DHT22;18379;48.208;-1.518;2023-04-15T08:44:34;11.10;99.90
31809;DHT22;18379;48.208;-1.518;2023-04-15T08:49:39;11.30;99.90
31809;DHT22;18379;48.208;-1.518;2023-04-15T08:54:43;11.30;99.90
31809;DHT22;18379;48.208;-1.518;2023-04-15T08:59:44;11.40;99.90
31809;DHT22;18379;48.208;-1.518;2023-04-15T09:04:45;11.30;99.90
31809;DHT22;18379;48.208;-1.518;2023-04-15T09:09:47;11.40;99.90
31809;DHT22;18379;48.208;-1.518;2023-04-15T09:14:48;11.70;99.90
31809;DHT22;18379;48.208;-1.518;2023-04-15T09:20:07;11.90;99.90
31809;DHT22;18379;48.208;-1.518;2023-04-15T09:30:15;12.30;99.90
31809;DHT22;18379;48.208;-1.518;2023-04-15T09:35:17;12.30;99.90
31809;DHT22;18379;48.208;-1.518;2023-04-15T09:45:35;12.00;99.90
31809;DHT22;18379;48.208;-1.518;2023-04-15T09:50:40;11.60;99.90
31809;DHT22;18379;48.208;-1.518;2023-04-15T09:55:53;11.50;99.90
31809;DHT22;18379;48.208;-1.518;2023-04-15T10:00:56;11.90;99.90
31809;DHT22;18379;48.208;-1.518;2023-04-15T10:05:58;11.90;99.90
31809;DHT22;18379;48.208;-1.518;2023-04-15T10:16:18;12.20;99.90
31809;DHT22;18379;48.208;-1.518;2023-04-15T10:21:20;12.40;99.90
31809;DHT22;18379;48.208;-1.518;2023-04-15T10:26:22;12.70;99.90
31809;DHT22;18379;48.208;-1.518;2023-04-15T10:31:23;12.60;99.90
31809;DHT22;18379;48.208;-1.518;2023-04-15T10:36:25;12.40;99.90
31809;DHT22;18379;48.208;-1.518;2023-04-15T10:41:27;12.40;99.90
31809;DHT22;18379;48.208;-1.518;2023-04-15T10:46:44;12.80;99.90
31809;DHT22;18379;48.208;-1.518;2023-04-15T10:51:48;12.90;99.90
31809;DHT22;18379;48.208;-1.518;2023-04-15T10:57:05;12.60;99.90
31809;DHT22;18379;48.208;-1.518;2023-04-15T11:02:07;12.50;99.90
31809;DHT22;18379;48.208;-1.518;2023-04-15T11:07:07;13.10;99.90
31809;DHT22;18379;48.208;-1.518;2023-04-15T11:12:09;13.20;99.90
31809;DHT22;18379;48.208;-1.518;2023-04-15T11:17:10;13.30;99.90
31809;DHT22;18379;48.208;-1.518;2023-04-15T11:22:12;13.10;99.90
31809;DHT22;18379;48.208;-1.518;2023-04-15T11:27:31;13.20;99.90
31809;DHT22;18379;48.208;-1.518;2023-04-15T11:32:32;13.50;99.90
31809;DHT22;18379;48.208;-1.518;2023-04-15T11:37:33;13.50;99.90
31809;DHT22;18379;48.208;-1.518;2023-04-15T11:42:34;13.80;99.90
31809;DHT22;18379;48.208;-1.518;2023-04-15T11:47:36;13.90;99.90
31809;DHT22;18379;48.208;-1.518;2023-04-15T11:52:37;13.60;99.90
31809;DHT22;18379;48.208;-1.518;2023-04-15T11:57:38;13.50;99.90
31809;DHT22;18379;48.208;-1.518;2023-04-15T12:02:38;12.70;99.90
31809;DHT22;18379;48.208;-1.518;2023-04-15T12:07:59;13.40;99.90
31809;DHT22;18379;48.208;-1.518;2023-04-15T12:13:00;13.60;99.90
31809;DHT22;18379;48.208;-1.518;2023-04-15T12:18:01;13.40;99.90
31809;DHT22;18379;48.208;-1.518;2023-04-15T12:23:05;13.80;99.90
31809;DHT22;18379;48.208;-1.518;2023-04-15T12:28:12;14.60;99.90
31809;DHT22;18379;48.208;-1.518;2023-04-15T12:33:12;14.30;99.90
31809;DHT22;18379;48.208;-1.518;2023-04-15T12:38:14;14.50;99.90
31809;DHT22;18379;48.208;-1.518;2023-04-15T12:43:14;14.40;99.90
31809;DHT22;18379;48.208;-1.518;2023-04-15T12:48:15;14.30;99.90
31809;DHT22;18379;48.208;-1.518;2023-04-15T12:53:16;14.10;99.90
31809;DHT22;18379;48.208;-1.518;2023-04-15T12:58:17;13.30;99.90
31809;DHT22;18379;48.208;-1.518;2023-04-15T13:03:18;13.30;99.90
31809;DHT22;18379;48.208;-1.518;2023-04-15T13:08:19;13.50;99.90
31809;DHT22;18379;48.208;-1.518;2023-04-15T13:13:20;13.40;99.90
31809;DHT22;18379;48.208;-1.518;2023-04-15T13:18:21;13.90;99.90
31809;DHT22;18379;48.208;-1.518;2023-04-15T13:23:23;14.20;99.90
31809;DHT22;18379;48.208;-1.518;2023-04-15T13:28:24;14.20;99.90
31809;DHT22;18379;48.208;-1.518;2023-04-15T13:33:25;14.70;99.90
31809;DHT22;18379;48.208;-1.518;2023-04-15T13:38:26;15.20;99.90
31809;DHT22;18379;48.208;-1.518;2023-04-15T13:43:27;14.90;99.90
31809;DHT22;18379;48.208;-1.518;2023-04-15T13:48:27;15.10;99.90
31809;DHT22;18379;48.208;-1.518;2023-04-15T13:53:28;15.00;99.90
31809;DHT22;18379;48.208;-1.518;2023-04-15T13:58:30;15.50;99.90
31809;DHT22;18379;48.208;-1.518;2023-04-15T14:03:31;15.60;99.90
31809;DHT22;18379;48.208;-1.518;2023-04-15T14:08:32;15.40;99.90
31809;DHT22;18379;48.208;-1.518;2023-04-15T14:13:32;15.20;99.90
31809;DHT22;18379;48.208;-1.518;2023-04-15T14:18:33;15.50;99.90
31809;DHT22;18379;48.208;-1.518;2023-04-15T14:23:34;15.80;99.90
31809;DHT22;18379;48.208;-1.518;2023-04-15T14:28:35;16.00;99.90
31809;DHT22;18379;48.208;-1.518;2023-04-15T14:33:37;15.80;99.90
31809;DHT22;18379;48.208;-1.518;2023-04-15T14:38:38;14.80;99.90
31809;DHT22;18379;48.208;-1.518;2023-04-15T14:43:39;15.30;99.90
31809;DHT22;18379;48.208;-1.518;2023-04-15T14:48:41;16.30;99.90
31809;DHT22;18379;48.208;-1.518;2023-04-15T14:53:42;16.50;99.90
31809;DHT22;18379;48.208;-1.518;2023-04-15T14:58:43;16.90;99.90
31809;DHT22;18379;48.208;-1.518;2023-04-15T15:03:44;16.50;99.90
31809;DHT22;18379;48.208;-1.518;2023-04-15T15:08:45;15.70;99.90
31809;DHT22;18379;48.208;-1.518;2023-04-15T15:13:46;15.80;99.90
31809;DHT22;18379;48.208;-1.518;2023-04-15T15:18:46;16.40;99.90
31809;DHT22;18379;48.208;-1.518;2023-04-15T15:23:47;16.60;99.90
31809;DHT22;18379;48.208;-1.518;2023-04-15T15:28:48;16.70;99.90
31809;DHT22;18379;48.208;-1.518;2023-04-15T15:33:50;16.90;99.90
31809;DHT22;18379;48.208;-1.518;2023-04-15T15:38:52;16.20;99.90
31809;DHT22;18379;48.208;-1.518;2023-04-15T15:43:53;16.40;99.90
31809;DHT22;18379;48.208;-1.518;2023-04-15T15:48:54;16.20;99.90
31809;DHT22;18379;48.208;-1.518;2023-04-15T15:53:56;16.10;99.90
31809;DHT22;18379;48.208;-1.518;2023-04-15T15:58:56;16.30;99.90
31809;DHT22;18379;48.208;-1.518;2023-04-15T16:03:57;16.00;99.90
31809;DHT22;18379;48.208;-1.518;2023-04-15T16:08:58;16.40;99.90
31809;DHT22;18379;48.208;-1.518;2023-04-15T16:13:59;17.00;99.90
31809;DHT22;18379;48.208;-1.518;2023-04-15T16:19:00;16.80;99.90
31809;DHT22;18379;48.208;-1.518;2023-04-15T16:24:01;16.30;99.90
31809;DHT22;18379;48.208;-1.518;2023-04-15T16:29:02;16.90;99.90
31809;DHT22;18379;48.208;-1.518;2023-04-15T16:34:03;16.80;99.90
31809;DHT22;18379;48.208;-1.518;2023-04-15T16:39:04;16.60;99.90
31809;DHT22;18379;48.208;-1.518;2023-04-15T16:44:11;16.70;99.90
31809;DHT22;18379;48.208;-1.518;2023-04-15T16:49:12;16.30;99.90
31809;DHT22;18379;48.208;-1.518;2023-04-15T16:54:13;16.30;99.90
31809;DHT22;18379;48.208;-1.518;2023-04-15T16:59:13;16.60;99.90
31809;DHT22;18379;48.208;-1.518;2023-04-15T17:04:15;16.20;99.90
31809;DHT22;18379;48.208;-1.518;2023-04-15T17:09:16;16.40;99.90
31809;DHT22;18379;48.208;-1.518;2023-04-15T17:14:17;16.00;99.90
31809;DHT22;18379;48.208;-1.518;2023-04-15T17:19:18;15.60;99.90
31809;DHT22;18379;48.208;-1.518;2023-04-15T17:24:21;15.40;99.90
31809;DHT22;18379;48.208;-1.518;2023-04-15T17:29:22;14.90;99.90
31809;DHT22;18379;48.208;-1.518;2023-04-15T17:34:27;14.70;99.90
31809;DHT22;18379;48.208;-1.518;2023-04-15T17:39:28;14.60;99.90
31809;DHT22;18379;48.208;-1.518;2023-04-15T17:44:29;14.50;99.90
31809;DHT22;18379;48.208;-1.518;2023-04-15T17:49:30;14.30;99.90
31809;DHT22;18379;48.208;-1.518;2023-04-15T17:54:33;13.80;99.90
31809;DHT22;18379;48.208;-1.518;2023-04-15T17:59:34;13.60;99.90
31809;DHT22;18379;48.208;-1.518;2023-04-15T18:04:35;13.00;99.90
31809;DHT22;18379;48.208;-1.518;2023-04-15T18:09:35;12.60;99.90
31809;DHT22;18379;48.208;-1.518;2023-04-15T18:14:36;12.30;99.90
31809;DHT22;18379;48.208;-1.518;2023-04-15T18:19:37;12.20;99.90
31809;DHT22;18379;48.208;-1.518;2023-04-15T18:24:38;11.90;99.90
31809;DHT22;18379;48.208;-1.518;2023-04-15T18:29:39;11.80;99.90
31809;DHT22;18379;48.208;-1.518;2023-04-15T18:34:40;11.70;99.90
31809;DHT22;18379;48.208;-1.518;2023-04-15T18:39:42;11.50;99.90
31809;DHT22;18379;48.208;-1.518;2023-04-15T18:44:43;11.30;99.90
31809;DHT22;18379;48.208;-1.518;2023-04-15T18:49:44;11.30;99.90
31809;DHT22;18379;48.208;-1.518;2023-04-15T18:54:44;11.20;99.90
31809;DHT22;18379;48.208;-1.518;2023-04-15T18:59:45;11.10;99.90
31809;DHT22;18379;48.208;-1.518;2023-04-15T19:04:48;11.00;99.90
31809;DHT22;18379;48.208;-1.518;2023-04-15T19:09:49;10.90;99.90
31809;DHT22;18379;48.208;-1.518;2023-04-15T19:14:50;10.80;99.90
31809;DHT22;18379;48.208;-1.518;2023-04-15T19:19:50;10.70;99.90
31809;DHT22;18379;48.208;-1.518;2023-04-15T19:24:51;10.40;99.90
31809;DHT22;18379;48.208;-1.518;2023-04-15T19:29:52;10.30;99.90
31809;DHT22;18379;48.208;-1.518;2023-04-15T19:34:53;10.30;99.90
31809;DHT22;18379;48.208;-1.518;2023-04-15T19:39:54;10.20;99.90
31809;DHT22;18379;48.208;-1.518;2023-04-15T19:44:55;10.20;99.90
31809;DHT22;18379;48.208;-1.518;2023-04-15T19:49:56;10.20;99.90
31809;DHT22;18379;48.208;-1.518;2023-04-15T19:54:57;10.20;99.90
31809;DHT22;18379;48.208;-1.518;2023-04-15T19:59:58;10.10;99.90
31809;DHT22;18379;48.208;-1.518;2023-04-15T20:04:58;10.10;99.90
31809;DHT22;18379;48.208;-1.518;2023-04-15T20:09:59;10.00;99.90
31809;DHT22;18379;48.208;-1.518;2023-04-15T20:15:00;9.90;99.90
31809;DHT22;18379;48.208;-1.518;2023-04-15T20:20:02;9.90;99.90
31809;DHT22;18379;48.208;-1.518;2023-04-15T20:25:04;9.80;99.90
31809;DHT22;18379;48.208;-1.518;2023-04-15T20:30:05;9.70;99.90
31809;DHT22;18379;48.208;-1.518;2023-04-15T20:35:07;9.70;99.90
31809;DHT22;18379;48.208;-1.518;2023-04-15T20:40:08;9.70;99.90
31809;DHT22;18379;48.208;-1.518;2023-04-15T20:45:09;9.60;99.90
31809;DHT22;18379;48.208;-1.518;2023-04-15T20:50:10;9.50;99.90
31809;DHT22;18379;48.208;-1.518;2023-04-15T20:55:11;9.50;99.90
31809;DHT22;18379;48.208;-1.518;2023-04-15T21:00:12;9.40;99.90
31809;DHT22;18379;48.208;-1.518;2023-04-15T21:05:14;9.40;99.90
31809;DHT22;18379;48.208;-1.518;2023-04-15T21:10:33;9.30;99.90
31809;DHT22;18379;48.208;-1.518;2023-04-15T21:15:34;9.30;99.90
31809;DHT22;18379;48.208;-1.518;2023-04-15T21:20:35;9.20;99.90
31809;DHT22;18379;48.208;-1.518;2023-04-15T21:25:36;9.20;99.90
31809;DHT22;18379;48.208;-1.518;2023-04-15T21:30:37;9.20;99.90
31809;DHT22;18379;48.208;-1.518;2023-04-15T21:35:37;9.10;99.90
31809;DHT22;18379;48.208;-1.518;2023-04-15T21:40:38;9.00;99.90
31809;DHT22;18379;48.208;-1.518;2023-04-15T21:45:40;9.00;99.90
31809;DHT22;18379;48.208;-1.518;2023-04-15T21:50:43;8.90;99.90
31809;DHT22;18379;48.208;-1.518;2023-04-15T21:55:44;9.00;99.90
31809;DHT22;18379;48.208;-1.518;2023-04-15T22:00:45;8.90;99.90
31809;DHT22;18379;48.208;-1.518;2023-04-15T22:05:46;8.90;99.90
31809;DHT22;18379;48.208;-1.518;2023-04-15T22:10:47;8.80;99.90
31809;DHT22;18379;48.208;-1.518;2023-04-15T22:15:48;8.70;99.90
31809;DHT22;18379;48.208;-1.518;2023-04-15T22:20:49;8.70;99.90
31809;DHT22;18379;48.208;-1.518;2023-04-15T22:25:50;8.70;99.90
31809;DHT22;18379;48.208;-1.518;2023-04-15T22:30:50;8.60;99.90
31809;DHT22;18379;48.208;-1.518;2023-04-15T22:35:53;8.50;99.90
31809;DHT22;18379;48.208;-1.518;2023-04-15T22:40:54;8.40;99.90
31809;DHT22;18379;48.208;-1.518;2023-04-15T22:45:58;8.30;99.90
31809;DHT22;18379;48.208;-1.518;2023-04-15T22:51:02;8.30;99.90
31809;DHT22;18379;48.208;-1.518;2023-04-15T22:56:03;8.30;99.90
31809;DHT22;18379;48.208;-1.518;2023-04-15T23:01:04;8.30;99.90
31809;DHT22;18379;48.208;-1.518;2023-04-15T23:06:05;8.10;99.90
31809;DHT22;18379;48.208;-1.518;2023-04-15T23:11:06;8.00;99.90
31809;DHT22;18379;48.208;-1.518;2023-04-15T23:16:07;7.90;99.90
31809;DHT22;18379;48.208;-1.518;2023-04-15T23:21:08;7.90;99.90
31809;DHT22;18379;48.208;-1.518;2023-04-15T23:26:09;7.90;99.90
31809;DHT22;18379;48.208;-1.518;2023-04-15T23:31:10;8.00;99.90
31809;DHT22;18379;48.208;-1.518;2023-04-15T23:36:10;8.00;99.90
31809;DHT22;18379;48.208;-1.518;2023-04-15T23:41:11;8.00;99.90
31809;DHT22;18379;48.208;-1.518;2023-04-15T23:46:12;8.00;99.90
31809;DHT22;18379;48.208;-1.518;2023-04-15T23:51:13;8.00;99.90
31809;DHT22;18379;48.208;-1.518;2023-04-15T23:56:14;8.10;99.90
